Time;durP1;ratioP1;P1;durP2;ratioP2;P2;SDS_P1;SDS_P2;PMS_P1;PMS_P2;Temp;Humidity;BMP_temperature;BMP_pressure;BME280_temperature;BME280_humidity;BME280_pressure;Samples;Min_cycle;Max_cycle;Signal;HPM_P1;HPM_P2
2022/02/02 00:01:37;;;;;;;;;;;;;;;22.40;21.01;96998.41;4986867;28;1005;-78
2022/02/02 00:04:02;;;;;;;;;;;;;;;22.42;20.98;97007.22;4984391;28;963;-78
2022/02/02 00:06:38;;;;;;;;;;;;;;;22.35;20.94;96997.00;4986604;28;1205;-78
2022/02/02 00:09:10;;;;;;;;;;;;;;;22.45;21.03;97003.44;4984199;28;1096;-78
2022/02/02 00:14:18;;;;;;;;;;;;;;;22.07;21.47;96996.19;4984181;28;930;-78
2022/02/02 00:16:51;;;;;;;;;;;;;;;22.16;21.40;96996.22;4967884;28;972;-78
2022/02/02 00:19:36;;;;;;;;;;;;;;;22.45;21.12;96981.53;4965043;28;1169;-79
2022/02/02 00:22:08;;;;;;;;;;;;;;;22.26;21.15;96994.16;4967229;28;906;-78
2022/02/02 00:27:12;;;;;;;;;;;;;;;22.41;21.07;96983.75;5045481;28;1902;-77
2022/02/02 00:29:47;;;;;;;;;;;;;;;22.68;20.57;96974.38;5043424;28;1003;-78
2022/02/02 00:34:44;;;;;;;;;;;;;;;22.54;20.56;96987.19;5042723;28;1121;-78
2022/02/02 00:37:10;;;;;;;;;;;;;;;22.32;21.21;96987.38;5044847;28;990;-78
2022/02/02 00:39:35;;;;;;;;;;;;;;;22.47;21.16;96975.38;5043165;28;973;-78
2022/02/02 00:42:02;;;;;;;;;;;;;;;22.50;21.00;96966.72;5045029;28;977;-78
2022/02/02 00:44:28;;;;;;;;;;;;;;;22.23;21.09;96973.25;5042826;28;995;-78
2022/02/02 00:46:53;;;;;;;;;;;;;;;22.38;20.98;96961.22;5010904;28;1899;-78
2022/02/02 00:49:19;;;;;;;;;;;;;;;22.46;21.03;96959.66;5023691;28;994;-78
2022/02/02 00:51:46;;;;;;;;;;;;;;;22.26;20.85;96958.09;5025038;28;869;-78
2022/02/02 00:54:12;;;;;;;;;;;;;;;22.34;20.85;96953.69;5022904;28;1014;-78
2022/02/02 00:56:38;;;;;;;;;;;;;;;22.30;21.20;96944.56;5025788;28;927;-78
2022/02/02 00:59:03;;;;;;;;;;;;;;;22.35;20.89;96937.47;5022504;28;908;-78
2022/02/02 01:01:28;;;;;;;;;;;;;;;22.43;20.97;96940.75;5025486;28;947;-78
2022/02/02 01:03:54;;;;;;;;;;;;;;;22.54;20.94;96935.38;4982687;28;1064;-78
2022/02/02 01:06:21;;;;;;;;;;;;;;;22.53;20.86;96928.13;4986028;28;962;-78
2022/02/02 01:19:36;;;;;;;;;;;;;;;21.84;21.53;96929.63;4945288;29;975;-78
2022/02/02 01:29:55;;;;;;;;;;;;;;;22.35;21.01;96918.41;4944483;29;960;-78
2022/02/02 01:32:20;;;;;;;;;;;;;;;22.36;21.02;96914.31;4947132;29;984;-78
2022/02/02 01:34:46;;;;;;;;;;;;;;;22.42;20.94;96916.50;4953442;29;988;-78
2022/02/02 01:37:12;;;;;;;;;;;;;;;22.50;20.56;96912.09;4965889;29;947;-78
2022/02/02 01:39:38;;;;;;;;;;;;;;;22.33;21.09;96909.63;4963380;29;1021;-77
2022/02/02 01:42:07;;;;;;;;;;;;;;;22.40;20.66;96904.88;4965905;28;1194;-78
2022/02/02 01:44:42;;;;;;;;;;;;;;;22.47;20.77;96896.81;4963654;28;1009;-77
2022/02/02 01:47:09;;;;;;;;;;;;;;;22.44;20.63;96892.09;4978985;28;1907;-78
2022/02/02 01:52:41;;;;;;;;;;;;;;;22.16;21.04;96899.88;5048962;28;929;-78
2022/02/02 01:55:07;;;;;;;;;;;;;;;22.38;20.81;96893.22;5047560;28;1005;-78
2022/02/02 01:59:58;;;;;;;;;;;;;;;22.28;21.04;96896.09;5047784;28;996;-78
2022/02/02 02:02:23;;;;;;;;;;;;;;;22.17;21.03;96895.78;5050311;28;865;-78
2022/02/02 02:04:49;;;;;;;;;;;;;;;22.28;20.80;96890.44;5047989;28;838;-78
2022/02/02 02:07:14;;;;;;;;;;;;;;;22.38;20.87;96890.38;5047680;28;1883;-78
2022/02/02 02:09:40;;;;;;;;;;;;;;;22.18;20.96;96886.03;5045325;28;920;-78
2022/02/02 02:12:06;;;;;;;;;;;;;;;22.15;20.91;96898.31;5047498;28;983;-78
2022/02/02 02:14:42;;;;;;;;;;;;;;;22.37;20.58;96903.75;5045224;28;943;-78
2022/02/02 02:17:07;;;;;;;;;;;;;;;22.08;21.13;96892.97;5047845;28;1059;-78
2022/02/02 02:19:36;;;;;;;;;;;;;;;22.29;20.99;96886.31;5045690;28;1053;-78
2022/02/02 02:22:02;;;;;;;;;;;;;;;22.40;20.63;96882.19;4982791;28;1033;-78
2022/02/02 02:24:28;;;;;;;;;;;;;;;22.51;20.72;96885.31;5044899;28;984;-78
2022/02/02 02:26:53;;;;;;;;;;;;;;;22.39;20.67;96886.31;5007965;28;1898;-78
2022/02/02 02:29:42;;;;;;;;;;;;;;;22.93;19.98;96887.34;5005461;28;1047;-78
2022/02/02 02:56:39;;;;;;;;;;;;;;;22.36;20.62;96868.97;5026633;28;882;-77
2022/02/02 02:59:12;;;;;;;;;;;;;;;22.25;20.72;96857.38;5064432;28;913;-78
2022/02/02 03:58:22;;;;;;;;;;;;;;;22.18;20.84;96834.25;5003278;28;936;-78
2022/02/02 04:03:49;;;;;;;;;;;;;;;21.77;21.51;96840.13;4988812;28;1059;-78
2022/02/02 04:06:22;;;;;;;;;;;;;;;22.34;20.94;96837.50;5006363;28;977;-78
2022/02/02 04:08:48;;;;;;;;;;;;;;;22.31;20.81;96838.44;5002665;28;1983;-78
2022/02/02 04:11:20;;;;;;;;;;;;;;;22.31;20.70;96838.44;4987467;28;947;-78
2022/02/02 04:17:14;;;;;;;;;;;;;;;22.35;20.89;96839.06;4986942;28;968;-78
2022/02/02 04:54:56;;;;;;;;;;;;;;;22.32;20.56;96856.22;4958834;29;980;-77
2022/02/02 05:05:56;;;;;;;;;;;;;;;21.80;21.32;96856.16;4947109;29;1030;-78
2022/02/02 05:21:47;;;;;;;;;;;;;;;22.19;21.00;96852.81;4909937;29;956;-78
2022/02/02 05:52:59;;;;;;;;;;;;;;;21.94;21.18;96876.63;4991358;28;1059;-78
2022/02/02 05:55:25;;;;;;;;;;;;;;;22.27;20.89;96871.81;5007120;28;982;-78
2022/02/02 05:57:50;;;;;;;;;;;;;;;21.73;21.70;96879.16;4974505;28;1005;-78
2022/02/02 06:00:16;;;;;;;;;;;;;;;22.09;20.91;96871.88;5023098;28;926;-78
2022/02/02 06:02:45;;;;;;;;;;;;;;;22.17;21.10;96869.50;5049227;28;847;-78
2022/02/02 06:05:11;;;;;;;;;;;;;;;22.06;20.87;96884.13;5048043;28;858;-78
2022/02/02 06:07:37;;;;;;;;;;;;;;;21.89;21.38;96874.41;5049292;28;1914;-78
2022/02/02 06:10:03;;;;;;;;;;;;;;;21.94;21.31;96874.56;5046691;28;1148;-78
2022/02/02 06:12:29;;;;;;;;;;;;;;;22.20;20.91;96877.84;5048823;28;1201;-78
2022/02/02 06:14:54;;;;;;;;;;;;;;;23.08;19.97;96874.03;5047259;28;894;-78
2022/02/02 06:17:21;;;;;;;;;;;;;;;23.02;19.75;96867.44;5050563;28;951;-78
2022/02/02 06:19:46;;;;;;;;;;;;;;;22.99;19.68;96865.56;5062112;28;1161;-78
2022/02/02 06:22:15;;;;;;;;;;;;;;;22.53;20.58;96877.09;5049644;28;897;-78
2022/02/02 06:24:52;;;;;;;;;;;;;;;21.90;21.37;96882.44;5045704;28;1031;-78
2022/02/02 06:27:25;;;;;;;;;;;;;;;22.31;20.92;96886.63;5048942;28;1906;-78
2022/02/02 06:30:00;;;;;;;;;;;;;;;22.16;20.86;96888.56;5045882;28;897;-78
2022/02/02 06:32:28;;;;;;;;;;;;;;;22.13;21.08;96886.69;5048418;28;905;-78
2022/02/02 06:34:56;;;;;;;;;;;;;;;22.27;20.97;96888.03;5045964;28;1270;-78
2022/02/02 06:37:21;;;;;;;;;;;;;;;22.27;20.98;96894.50;5049843;28;977;-78
2022/02/02 06:39:50;;;;;;;;;;;;;;;21.88;21.32;96901.16;5046076;28;912;-78
2022/02/02 06:42:15;;;;;;;;;;;;;;;22.01;21.29;96893.25;5049159;28;1195;-78
2022/02/02 06:44:42;;;;;;;;;;;;;;;22.16;20.87;96908.38;5045896;28;988;-78
2022/02/02 06:47:07;;;;;;;;;;;;;;;22.36;20.75;96900.16;5066988;28;1897;-79
2022/02/02 06:49:34;;;;;;;;;;;;;;;22.34;20.50;96899.84;5064111;28;910;-78
2022/02/02 06:52:06;;;;;;;;;;;;;;;22.17;20.99;96904.28;5066890;28;956;-78
2022/02/02 06:54:47;;;;;;;;;;;;;;;22.25;21.00;96897.03;5064058;28;931;-78
2022/02/02 06:57:18;;;;;;;;;;;;;;;22.26;20.91;96904.25;5046957;28;934;-79
2022/02/02 07:02:40;;;;;;;;;;;;;;;22.09;21.06;96900.97;5046530;28;964;-78
2022/02/02 07:08:15;;;;;;;;;;;;;;;22.19;20.82;96910.28;5004853;28;1910;-79
2022/02/02 07:29:18;;;;;;;;;;;;;;;21.74;21.57;96922.41;4797127;29;1974;-78
2022/02/02 07:32:14;;;;;;;;;;;;;;;22.08;21.11;96915.63;4799836;30;963;-78
2022/02/02 07:35:01;;;;;;;;;;;;;;;22.13;21.06;96922.72;4785360;30;1055;-78
2022/02/02 07:37:33;;;;;;;;;;;;;;;21.93;21.40;96921.13;4799846;29;952;-78
2022/02/02 07:40:02;;;;;;;;;;;;;;;22.99;19.77;96925.13;4783472;29;988;-79
2022/02/02 07:42:28;;;;;;;;;;;;;;;22.62;20.20;96919.59;4856665;29;1237;-79
2022/02/02 07:45:01;;;;;;;;;;;;;;;21.67;21.51;96915.00;4864536;29;1423;-78
2022/02/02 07:47:27;;;;;;;;;;;;;;;21.98;21.09;96917.69;4870702;29;1972;-78
2022/02/02 07:49:54;;;;;;;;;;;;;;;22.32;20.76;96913.69;4881694;29;1035;-76
2022/02/02 07:52:20;;;;;;;;;;;;;;;21.69;21.57;96912.50;4898491;29;1026;-76
2022/02/02 07:54:47;;;;;;;;;;;;;;;21.94;21.39;96916.25;4917360;29;935;-76
2022/02/02 07:57:15;;;;;;;;;;;;;;;22.06;21.06;96903.97;4928542;29;1010;-76
2022/02/02 08:02:06;;;;;;;;;;;;;;;22.20;20.99;96900.50;4927368;29;1025;-76
2022/02/02 08:04:32;;;;;;;;;;;;;;;21.78;21.51;96904.00;4926786;29;1028;-75
2022/02/02 08:06:58;;;;;;;;;;;;;;;22.35;20.79;96900.63;4909839;29;1911;-76
2022/02/02 08:09:38;;;;;;;;;;;;;;;22.13;21.10;96903.69;4907816;29;1047;-75
2022/02/02 08:12:05;;;;;;;;;;;;;;;21.90;21.23;96904.31;4910255;29;980;-76
2022/02/02 08:14:34;;;;;;;;;;;;;;;21.64;21.65;96910.28;4907755;29;978;-76
2022/02/02 08:16:59;;;;;;;;;;;;;;;22.07;21.03;96902.69;4949863;29;1083;-76
2022/02/02 08:19:25;;;;;;;;;;;;;;;22.05;21.09;96905.22;4947430;29;1026;-76
2022/02/02 08:21:50;;;;;;;;;;;;;;;22.07;21.40;96902.69;4909696;29;967;-76
2022/02/02 08:24:18;;;;;;;;;;;;;;;22.88;20.15;96909.44;4907477;29;941;-76
2022/02/02 08:26:43;;;;;;;;;;;;;;;22.92;20.05;96905.63;4909124;29;950;-77
2022/02/02 08:29:09;;;;;;;;;;;;;;;22.35;20.49;96895.75;4928994;29;1892;-76
2022/02/02 08:31:35;;;;;;;;;;;;;;;22.26;20.97;96898.59;4911321;29;1274;-76
2022/02/02 08:34:08;;;;;;;;;;;;;;;22.24;21.00;96889.81;4907225;29;1021;-76
2022/02/02 08:36:33;;;;;;;;;;;;;;;22.38;20.74;96893.22;4909496;29;984;-77
2022/02/02 08:41:55;;;;;;;;;;;;;;;22.29;20.92;96903.31;4966566;29;1135;-77
2022/02/02 08:44:29;;;;;;;;;;;;;;;22.28;21.00;96901.75;4948710;29;945;-77
2022/02/02 08:49:20;;;;;;;;;;;;;;;22.32;20.87;96902.34;4980723;28;1283;-77
2022/02/02 08:51:47;;;;;;;;;;;;;;;21.81;21.30;96907.91;4985682;28;923;-77
2022/02/02 08:54:25;;;;;;;;;;;;;;;22.21;21.06;96910.56;4964247;28;894;-77
2022/02/02 09:02:03;;;;;;;;;;;;;;;21.97;21.35;96898.34;5024716;28;979;-77
2022/02/02 09:07:12;;;;;;;;;;;;;;;21.88;21.50;96923.81;5025398;28;1902;-77
2022/02/02 09:33:53;;;;;;;;;;;;;;;22.22;20.96;96934.81;4942937;29;969;-77
2022/02/02 09:36:22;;;;;;;;;;;;;;;21.88;21.43;96938.78;4947699;29;963;-77
2022/02/02 09:38:49;;;;;;;;;;;;;;;21.61;21.80;96928.22;4890360;29;966;-77
2022/02/02 09:43:43;;;;;;;;;;;;;;;22.20;20.99;96920.34;4887038;29;1042;-77
2022/02/02 09:46:14;;;;;;;;;;;;;;;22.15;21.08;96917.38;4888586;29;934;-76
2022/02/02 09:49:01;;;;;;;;;;;;;;;22.09;21.12;96905.84;4850787;29;1884;-77
2022/02/02 09:51:51;;;;;;;;;;;;;;;21.32;22.23;96895.50;4854216;29;1000;-76
2022/02/02 09:54:31;;;;;;;;;;;;;;;21.93;21.45;96897.69;4850245;29;958;-77
2022/02/02 09:59:56;;;;;;;;;;;;;;;21.63;21.75;96886.06;4889472;29;1299;-77
2022/02/02 10:15:29;;;;;;;;;;;;;;;21.93;21.31;96872.22;4919728;29;1915;-76
2022/02/02 10:18:07;;;;;;;;;;;;;;;22.19;20.84;96881.94;4913916;29;1370;-77
2022/02/02 10:20:32;;;;;;;;;;;;;;;22.28;20.69;96879.09;4928217;29;1604;-77
2022/02/02 10:22:59;;;;;;;;;;;;;;;21.35;21.96;96876.81;4921553;29;1372;-79
2022/02/02 10:25:25;;;;;;;;;;;;;;;21.94;21.44;96876.63;4923128;29;1422;-76
2022/02/02 10:27:51;;;;;;;;;;;;;;;22.19;20.95;96873.44;4911466;29;1915;-77
2022/02/02 10:30:17;;;;;;;;;;;;;;;22.01;21.29;96874.22;4910778;29;1060;-76
2022/02/02 10:32:47;;;;;;;;;;;;;;;21.81;21.50;96877.59;4918602;29;1019;-76
2022/02/02 10:35:37;;;;;;;;;;;;;;;22.01;21.04;96882.72;4929187;29;935;-77
2022/02/02 10:38:10;;;;;;;;;;;;;;;22.06;21.06;96878.47;4929422;29;1557;-76
2022/02/02 10:40:55;;;;;;;;;;;;;;;22.11;21.19;96875.03;4935545;29;1503;-76
2022/02/02 10:43:34;;;;;;;;;;;;;;;21.70;21.53;96867.97;4927487;29;976;-77
2022/02/02 10:46:06;;;;;;;;;;;;;;;22.10;20.98;96867.75;4934390;29;1386;-76
2022/02/02 10:48:38;;;;;;;;;;;;;;;22.10;21.09;96862.91;4963284;29;1895;-77
2022/02/02 10:51:14;;;;;;;;;;;;;;;22.04;21.32;96869.66;5057784;28;1599;-76
2022/02/02 10:56:40;;;;;;;;;;;;;;;22.73;20.39;96880.16;5046645;28;1074;-76
2022/02/02 11:06:36;;;;;;;;;;;;;;;21.65;21.45;96866.56;5053101;28;1496;-77
2022/02/02 11:07:19;;;;;;;;;;;;;;;21.92;21.43;96862.16;5057930;28;1976;-77
2022/02/02 11:09:45;;;;;;;;;;;;;;;22.92;20.19;96863.09;5039445;28;1606;-77
2022/02/02 11:12:11;;;;;;;;;;;;;;;22.74;20.42;96867.56;5041571;28;1264;-77
2022/02/02 11:14:54;;;;;;;;;;;;;;;22.12;20.84;96870.91;5039108;28;1533;-77
2022/02/02 11:17:20;;;;;;;;;;;;;;;21.58;21.53;96872.56;5061303;28;1364;-77
2022/02/02 11:19:46;;;;;;;;;;;;;;;22.36;21.04;96863.31;5054405;28;1498;-77
2022/02/02 11:22:41;;;;;;;;;;;;;;;22.93;20.04;96862.59;5041140;28;1235;-77
2022/02/02 11:25:33;;;;;;;;;;;;;;;22.67;20.50;96858.63;5056757;28;1563;-78
2022/02/02 11:27:58;;;;;;;;;;;;;;;22.26;20.78;96858.94;5052182;28;1914;-78
2022/02/02 11:30:24;;;;;;;;;;;;;;;21.87;21.35;96842.97;5013798;28;1609;-78
2022/02/02 11:32:53;;;;;;;;;;;;;;;22.47;20.45;96845.00;5019024;28;1805;-77
2022/02/02 11:35:26;;;;;;;;;;;;;;;23.04;19.92;96847.88;5033430;28;1468;-77
2022/02/02 11:38:00;;;;;;;;;;;;;;;22.47;20.70;96839.34;5015910;28;1313;-78
2022/02/02 11:40:27;;;;;;;;;;;;;;;22.00;21.35;96837.88;5030260;28;1308;-78
2022/02/02 11:45:51;;;;;;;;;;;;;;;22.93;20.15;96824.94;4968291;29;1231;-78
2022/02/02 11:48:56;;;;;;;;;;;;;;;22.25;20.74;96820.53;4964730;29;1952;-78
2022/02/02 11:51:42;;;;;;;;;;;;;;;22.13;20.80;96827.19;4930580;29;1254;-78
2022/02/02 11:54:14;;;;;;;;;;;;;;;22.06;21.39;96827.47;4926622;29;1411;-78
2022/02/02 11:56:55;;;;;;;;;;;;;;;22.48;20.53;96829.56;4891843;29;1012;-78
2022/02/02 11:59:42;;;;;;;;;;;;;;;22.21;21.02;96833.28;4889582;29;1614;-78
2022/02/02 12:02:13;;;;;;;;;;;;;;;22.36;20.99;96834.97;4892103;29;982;-78
2022/02/02 12:04:59;;;;;;;;;;;;;;;22.16;20.96;96843.22;4870945;29;1061;-78
2022/02/02 12:07:45;;;;;;;;;;;;;;;22.31;20.87;96843.34;4872499;29;1883;-78
2022/02/02 12:10:16;;;;;;;;;;;;;;;21.75;21.78;96836.19;4871559;29;997;-78
2022/02/02 12:49:02;;;;;;;;;;;;;;;21.87;21.40;96848.63;4878502;29;1972;-78
2022/02/02 12:56:54;;;;;;;;;;;;;;;21.44;21.79;96861.84;4926113;29;985;-78
2022/02/02 13:02:12;;;;;;;;;;;;;;;22.55;20.68;96857.56;4853244;29;1046;-78
2022/02/02 13:04:38;;;;;;;;;;;;;;;21.59;21.62;96862.78;4851706;29;903;-78
2022/02/02 13:07:08;;;;;;;;;;;;;;;22.15;21.31;96861.47;4853981;29;1974;-78
2022/02/02 13:09:34;;;;;;;;;;;;;;;22.01;21.31;96859.28;4851055;29;962;-78
2022/02/02 13:12:15;;;;;;;;;;;;;;;22.26;21.18;96870.25;4872085;29;958;-78
2022/02/02 13:14:57;;;;;;;;;;;;;;;21.56;21.93;96869.41;4869924;29;918;-78
2022/02/02 13:17:23;;;;;;;;;;;;;;;21.99;21.58;96862.59;4928647;29;936;-78
2022/02/02 13:19:56;;;;;;;;;;;;;;;22.00;21.61;96875.50;4910411;29;1002;-78
2022/02/02 13:22:22;;;;;;;;;;;;;;;21.27;22.10;96881.94;4872168;29;1016;-78
2022/02/02 13:24:48;;;;;;;;;;;;;;;21.93;21.62;96866.56;4885156;29;1133;-78
2022/02/02 13:27:18;;;;;;;;;;;;;;;21.99;21.29;96856.16;4872226;29;1895;-78
2022/02/02 13:29:48;;;;;;;;;;;;;;;21.84;21.69;96868.13;4869651;29;1081;-78
2022/02/02 13:48:09;;;;;;;;;;;;;;;22.24;21.17;96861.47;4988534;28;2026;-78
2022/02/02 14:33:18;;;;;;;;;;;;;;;22.53;20.51;96848.75;5005160;28;994;-78
2022/02/02 14:35:47;;;;;;;;;;;;;;;22.20;20.99;96837.38;5009138;28;1038;-78
2022/02/02 14:38:14;;;;;;;;;;;;;;;21.89;21.56;96838.38;5006023;28;1027;-78
2022/02/02 14:40:57;;;;;;;;;;;;;;;22.79;20.28;96847.03;5008058;28;1042;-78
2022/02/02 14:43:32;;;;;;;;;;;;;;;22.80;20.08;96839.34;5021604;28;996;-77
2022/02/02 14:46:00;;;;;;;;;;;;;;;21.93;21.65;96852.38;5009424;28;1059;-78
2022/02/02 14:48:37;;;;;;;;;;;;;;;21.99;21.28;96845.59;5003734;28;1979;-79
2022/02/02 15:28:02;;;;;;;;;;;;;;;22.17;21.37;96861.78;5011170;28;1910;-78
2022/02/02 15:30:46;;;;;;;;;;;;;;;22.06;21.40;96867.13;4980484;28;1018;-77
2022/02/02 15:33:17;;;;;;;;;;;;;;;21.94;21.70;96870.94;4994601;28;911;-79
2022/02/02 15:35:44;;;;;;;;;;;;;;;22.43;20.96;96878.41;5027896;28;1001;-78
2022/02/02 15:38:31;;;;;;;;;;;;;;;22.46;20.80;96874.63;5024246;28;989;-78
2022/02/02 15:41:01;;;;;;;;;;;;;;;22.10;21.33;96870.59;5043655;28;1009;-78
2022/02/02 15:59:55;;;;;;;;;;;;;;;22.25;20.95;96863.03;5063666;28;961;-78
2022/02/02 16:02:14;;;;;;;;;;;;;;;22.93;20.61;96870.34;5029050;28;987;-78
2022/02/02 16:04:40;;;;;;;;;;;;;;;22.47;20.76;96881.84;5043579;28;1006;-78
2022/02/02 16:07:08;;;;;;;;;;;;;;;22.34;20.87;96876.41;5046116;28;1213;-78
2022/02/02 16:09:50;;;;;;;;;;;;;;;22.23;21.22;96882.56;5026481;28;906;-78
2022/02/02 16:12:40;;;;;;;;;;;;;;;22.59;20.81;96895.06;5045660;28;1122;-78
2022/02/02 16:17:58;;;;;;;;;;;;;;;21.39;22.33;96888.72;5045302;28;906;-78
2022/02/02 16:36:31;;;;;;;;;;;;;;;22.12;21.13;96904.91;5084086;28;1048;-78
2022/02/02 16:39:01;;;;;;;;;;;;;;;22.74;20.69;96897.97;5064549;28;937;-78
2022/02/02 16:44:10;;;;;;;;;;;;;;;21.51;22.07;96895.53;5064251;28;997;-78
2022/02/02 16:46:36;;;;;;;;;;;;;;;22.02;21.60;96900.50;5067083;28;968;-78
2022/02/02 16:49:01;;;;;;;;;;;;;;;22.27;21.42;96899.38;5064777;28;1917;-78
2022/02/02 16:51:27;;;;;;;;;;;;;;;23.05;20.09;96909.03;5067122;28;965;-78
2022/02/02 16:53:56;;;;;;;;;;;;;;;22.20;21.29;96905.38;5064257;28;891;-78
2022/02/02 16:56:42;;;;;;;;;;;;;;;22.38;21.19;96905.31;5066809;28;1148;-78
2022/02/02 17:35:08;;;;;;;;;;;;;;;21.96;21.39;96925.06;5042596;28;1050;-78
2022/02/02 17:38:04;;;;;;;;;;;;;;;22.49;20.97;96919.03;5024669;28;965;-78
2022/02/02 17:56:43;;;;;;;;;;;;;;;22.42;20.69;96930.69;4967387;29;991;-78
2022/02/02 18:20:17;;;;;;;;;;;;;;;23.00;20.25;96938.03;5022090;28;998;-77
2022/02/02 18:22:49;;;;;;;;;;;;;;;22.56;20.62;96944.19;5024006;28;1102;-79
2022/02/02 18:25:30;;;;;;;;;;;;;;;22.21;21.12;96950.25;5022869;28;936;-78
2022/02/02 18:28:13;;;;;;;;;;;;;;;22.01;21.51;96942.19;5020183;28;1975;-77
2022/02/02 18:33:18;;;;;;;;;;;;;;;22.99;20.42;96942.16;5024867;28;963;-78
2022/02/02 18:35:53;;;;;;;;;;;;;;;22.51;20.85;96959.78;5023408;28;1222;-78
2022/02/02 19:40:07;;;;;;;;;;;;;;;22.40;20.92;96953.06;4914052;29;930;-78
2022/02/02 19:56:26;;;;;;;;;;;;;;;21.82;21.87;96932.94;5008769;28;857;-78
2022/02/02 20:07:09;;;;;;;;;;;;;;;21.93;21.59;96928.84;5000915;28;1263;-78
2022/02/02 20:12:16;;;;;;;;;;;;;;;23.02;20.09;96935.53;5006582;28;1008;-78
2022/02/02 20:14:41;;;;;;;;;;;;;;;22.57;20.63;96935.19;4984897;28;971;-78
2022/02/02 20:17:10;;;;;;;;;;;;;;;22.54;20.80;96941.06;4987587;28;1323;-78
2022/02/02 20:19:39;;;;;;;;;;;;;;;22.34;20.96;96942.34;4984579;28;825;-78
2022/02/02 20:22:05;;;;;;;;;;;;;;;21.87;21.77;96944.91;4987187;28;1186;-78
2022/02/02 20:24:38;;;;;;;;;;;;;;;21.90;21.72;96946.78;4984118;28;1035;-78
2022/02/02 20:27:04;;;;;;;;;;;;;;;22.18;21.45;96942.72;4987004;28;990;-78
2022/02/02 20:29:31;;;;;;;;;;;;;;;22.04;21.42;96949.75;4952596;28;1923;-77
2022/02/02 20:31:57;;;;;;;;;;;;;;;21.70;21.97;96959.34;4986681;28;1051;-78
2022/02/02 20:34:23;;;;;;;;;;;;;;;22.23;21.47;96961.91;4984710;28;966;-78
2022/02/02 20:36:48;;;;;;;;;;;;;;;22.39;21.16;96957.94;4986946;28;933;-78
2022/02/02 20:39:40;;;;;;;;;;;;;;;21.85;21.60;96965.19;4984131;28;964;-78
2022/02/02 20:42:03;;;;;;;;;;;;;;;21.39;22.39;96972.84;4986415;28;994;-78
2022/02/02 20:44:47;;;;;;;;;;;;;;;22.15;21.40;96976.84;5013321;28;1217;-78
2022/02/02 21:01:38;;;;;;;;;;;;;;;22.07;21.13;96991.31;5080587;28;987;-78
2022/02/02 21:06:39;;;;;;;;;;;;;;;22.12;21.35;96989.91;5068489;28;1211;-78
2022/02/02 21:09:33;;;;;;;;;;;;;;;22.08;21.36;96994.94;5065628;28;1969;-78
2022/02/02 21:14:37;;;;;;;;;;;;;;;21.77;21.79;96993.03;5066097;28;929;-78
2022/02/02 21:17:04;;;;;;;;;;;;;;;21.78;21.68;96988.94;5067923;28;859;-78
2022/02/02 21:19:38;;;;;;;;;;;;;;;21.49;21.96;96997.84;5065466;28;1255;-79
2022/02/02 21:22:05;;;;;;;;;;;;;;;22.16;21.25;96990.53;5068264;28;969;-78
2022/02/02 21:24:47;;;;;;;;;;;;;;;21.79;21.44;96984.84;5080063;28;943;-78
2022/02/02 21:29:38;;;;;;;;;;;;;;;22.03;21.33;96995.56;5065017;28;1905;-78
2022/02/02 21:32:04;;;;;;;;;;;;;;;21.69;21.83;97002.31;5067283;28;962;-78
2022/02/02 21:34:29;;;;;;;;;;;;;;;21.69;21.96;96996.63;5063214;28;1060;-78
2022/02/02 21:36:56;;;;;;;;;;;;;;;21.96;21.51;96998.69;5068032;28;846;-78
2022/02/02 21:39:22;;;;;;;;;;;;;;;21.63;21.85;97009.84;5062376;28;959;-78
2022/02/02 21:41:50;;;;;;;;;;;;;;;21.85;21.81;97005.63;5064799;28;880;-78
2022/02/02 21:44:16;;;;;;;;;;;;;;;21.68;21.75;97012.06;5063327;28;1135;-78
2022/02/02 21:46:41;;;;;;;;;;;;;;;22.06;21.58;97003.09;5065923;28;948;-78
2022/02/02 21:49:09;;;;;;;;;;;;;;;22.26;21.01;97000.59;5002534;28;1992;-78
2022/02/02 21:51:39;;;;;;;;;;;;;;;21.95;21.71;97002.78;4974076;28;985;-78
2022/02/02 21:54:04;;;;;;;;;;;;;;;21.76;21.94;97011.28;5004051;28;1090;-77
2022/02/02 21:56:30;;;;;;;;;;;;;;;22.05;21.15;97012.88;4989338;28;919;-78
2022/02/02 21:58:55;;;;;;;;;;;;;;;22.19;21.22;97017.94;5002541;28;905;-78
2022/02/02 22:01:21;;;;;;;;;;;;;;;22.12;21.06;97006.13;5006728;28;1099;-78
2022/02/02 22:03:46;;;;;;;;;;;;;;;22.81;20.71;97006.19;5002459;28;1231;-78
2022/02/02 22:06:12;;;;;;;;;;;;;;;22.97;19.98;97007.91;4967600;28;1306;-77
2022/02/02 22:08:37;;;;;;;;;;;;;;;22.27;21.17;97007.06;4967312;29;1907;-78
2022/02/02 22:11:03;;;;;;;;;;;;;;;22.04;21.36;97002.81;4971731;29;842;-78
2022/02/02 22:13:44;;;;;;;;;;;;;;;22.08;21.42;97003.44;4966644;29;993;-79
2022/02/02 22:16:12;;;;;;;;;;;;;;;22.27;21.15;96996.50;4971935;29;962;-78
2022/02/02 22:18:39;;;;;;;;;;;;;;;22.16;21.38;96989.75;4972200;28;943;-78
2022/02/02 22:21:04;;;;;;;;;;;;;;;21.90;21.63;96989.25;4991002;28;855;-78
2022/02/02 22:23:30;;;;;;;;;;;;;;;21.67;21.66;96994.28;4986581;28;1004;-78
2022/02/02 22:25:57;;;;;;;;;;;;;;;22.11;21.15;96994.00;5003172;28;988;-78
2022/02/02 22:28:23;;;;;;;;;;;;;;;22.13;21.30;96997.19;5045242;28;1910;-78
2022/02/02 22:30:48;;;;;;;;;;;;;;;22.14;21.33;96998.75;5049088;28;889;-78
2022/02/02 22:33:14;;;;;;;;;;;;;;;21.96;21.35;96993.03;5045110;28;1008;-77
2022/02/02 22:35:39;;;;;;;;;;;;;;;22.34;20.78;96995.41;5048822;28;1090;-77
2022/02/02 22:38:05;;;;;;;;;;;;;;;22.28;21.22;97003.78;5065730;28;969;-78
2022/02/02 22:40:30;;;;;;;;;;;;;;;21.67;21.59;97014.09;5069979;28;1023;-78
2022/02/02 22:42:56;;;;;;;;;;;;;;;21.94;21.58;96998.41;5069292;28;914;-78
2022/02/02 22:45:21;;;;;;;;;;;;;;;22.14;21.10;97004.41;5070827;28;931;-78
2022/02/02 22:47:48;;;;;;;;;;;;;;;22.22;21.02;97022.66;5084865;28;1887;-78
2022/02/02 22:50:14;;;;;;;;;;;;;;;22.00;21.57;97019.94;5068908;28;997;-78
2022/02/02 22:52:42;;;;;;;;;;;;;;;21.69;21.95;97031.41;5069121;28;908;-78
2022/02/02 22:55:12;;;;;;;;;;;;;;;22.01;21.47;97020.72;5083697;28;1026;-78
2022/02/02 22:57:37;;;;;;;;;;;;;;;22.04;21.54;97022.63;5069031;28;897;-78
2022/02/02 23:00:06;;;;;;;;;;;;;;;21.58;21.95;97031.84;5068080;28;983;-78
2022/02/02 23:05:24;;;;;;;;;;;;;;;22.02;21.15;97014.63;5026976;28;1022;-77
2022/02/02 23:07:50;;;;;;;;;;;;;;;21.93;21.32;97011.00;5010141;28;1891;-78
2022/02/02 23:10:15;;;;;;;;;;;;;;;21.93;21.33;97005.31;5026590;28;1036;-78
2022/02/02 23:12:41;;;;;;;;;;;;;;;22.74;20.44;97006.53;5027723;28;885;-78
2022/02/02 23:15:10;;;;;;;;;;;;;;;23.28;19.53;97013.28;4986288;28;1077;-78
2022/02/02 23:17:37;;;;;;;;;;;;;;;22.14;21.10;97015.75;4987560;28;1039;-78
2022/02/02 23:20:03;;;;;;;;;;;;;;;21.53;21.76;97021.16;4932315;29;988;-78
2022/02/02 23:22:30;;;;;;;;;;;;;;;22.52;20.82;97011.59;4949901;29;1009;-78
2022/02/02 23:25:00;;;;;;;;;;;;;;;22.94;19.95;97020.19;4932134;29;1005;-78
2022/02/02 23:27:26;;;;;;;;;;;;;;;22.43;20.76;97025.78;4949918;29;1981;-78
2022/02/02 23:29:54;;;;;;;;;;;;;;;21.67;21.80;97033.13;4931287;29;921;-78
2022/02/02 23:32:22;;;;;;;;;;;;;;;22.01;21.34;97023.56;4950027;29;1028;-78
2022/02/02 23:34:48;;;;;;;;;;;;;;;22.40;20.90;97023.91;4932503;29;960;-78
2022/02/02 23:37:14;;;;;;;;;;;;;;;22.04;21.23;97014.13;4933946;29;971;-78
2022/02/02 23:39:40;;;;;;;;;;;;;;;22.20;21.29;97013.06;4947148;29;837;-78
2022/02/02 23:44:41;;;;;;;;;;;;;;;21.93;21.23;97017.44;4946759;29;1120;-78
2022/02/02 23:47:06;;;;;;;;;;;;;;;21.90;21.56;97011.91;5003644;28;998;-78
2022/02/02 23:49:41;;;;;;;;;;;;;;;22.25;21.07;97024.53;5005203;28;1987;-78
2022/02/02 23:52:07;;;;;;;;;;;;;;;22.09;21.00;97036.16;5025508;28;968;-78
2022/02/02 23:54:33;;;;;;;;;;;;;;;22.28;21.02;97032.13;5024156;28;939;-78
2022/02/02 23:57:07;;;;;;;;;;;;;;;22.09;21.05;97024.84;5010438;28;964;-77
